Time;durP1;ratioP1;P1;durP2;ratioP2;P2;SDS_P1;SDS_P2;PMS_P1;PMS_P2;Temp;Humidity;BMP_temperature;BMP_pressure;BME280_temperature;BME280_humidity;BME280_pressure;Samples;Min_cycle;Max_cycle;Signal;HPM_P1;HPM_P2
2021/06/25 00:00:34;;;;;;;5.45;4.47;;;17.30;68.50;;;;;;5077569;28;20328;-69
2021/06/25 00:03:01;;;;;;;4.90;4.50;;;17.30;67.80;;;;;;5077514;28;20041;-69
2021/06/25 00:05:27;;;;;;;5.30;4.78;;;17.30;67.80;;;;;;5077410;28;20056;-71
2021/06/25 00:07:53;;;;;;;6.57;4.93;;;17.30;67.80;;;;;;5077337;28;20044;-69
2021/06/25 00:10:19;;;;;;;4.82;4.22;;;17.30;67.90;;;;;;5077596;28;20143;-70
2021/06/25 00:12:45;;;;;;;4.95;4.43;;;17.30;67.90;;;;;;5077365;28;20036;-68
2021/06/25 00:15:12;;;;;;;5.22;4.72;;;17.30;67.80;;;;;;5077420;28;20067;-69
2021/06/25 00:17:38;;;;;;;5.28;4.78;;;17.20;67.80;;;;;;5077193;28;20098;-69
2021/06/25 00:20:07;;;;;;;5.40;4.90;;;17.30;68.10;;;;;;5076763;28;20451;-70
2021/06/25 00:22:34;;;;;;;6.30;5.10;;;17.20;67.80;;;;;;5076833;28;20036;-70
2021/06/25 00:25:00;;;;;;;5.72;4.90;;;17.20;67.80;;;;;;5077115;28;20044;-70
2021/06/25 00:27:27;;;;;;;5.60;5.10;;;17.20;68.00;;;;;;5077059;28;20097;-69
2021/06/25 00:29:54;;;;;;;5.15;4.65;;;17.20;68.00;;;;;;5076975;28;20127;-70
2021/06/25 00:32:19;;;;;;;5.10;4.70;;;17.20;68.00;;;;;;5077740;28;20036;-69
2021/06/25 00:34:45;;;;;;;5.65;4.78;;;17.20;68.10;;;;;;5076775;28;20379;-70
2021/06/25 00:37:11;;;;;;;5.22;4.72;;;17.20;68.10;;;;;;5077201;28;20150;-69
2021/06/25 00:39:37;;;;;;;5.85;5.25;;;17.20;68.10;;;;;;5076720;28;20400;-69
2021/06/25 00:42:06;;;;;;;7.68;5.18;;;17.20;68.10;;;;;;5076603;28;20079;-69
2021/06/25 00:44:32;;;;;;;4.82;4.30;;;17.20;67.70;;;;;;5076729;28;20048;-71
2021/06/25 00:46:58;;;;;;;4.80;4.25;;;17.20;67.80;;;;;;5076859;28;20037;-69
2021/06/25 00:49:23;;;;;;;6.38;4.65;;;17.20;67.90;;;;;;5091815;28;20391;-69
2021/06/25 00:51:50;;;;;;;5.85;4.97;;;17.20;67.90;;;;;;5076638;28;20067;-68
2021/06/25 00:54:16;;;;;;;7.72;6.38;;;17.20;67.60;;;;;;5076303;28;20451;-69
2021/06/25 00:56:42;;;;;;;6.78;6.07;;;17.10;66.80;;;;;;5076626;28;20055;-69
2021/06/25 00:59:08;;;;;;;5.95;5.45;;;17.10;66.40;;;;;;5076446;28;20348;-70
2021/06/25 01:01:34;;;;;;;6.10;5.50;;;17.00;66.40;;;;;;5076415;28;20055;-69
2021/06/25 01:04:01;;;;;;;5.82;4.88;;;16.90;66.30;;;;;;5076545;28;20422;-69
2021/06/25 01:06:30;;;;;;;8.05;5.93;;;16.90;66.60;;;;;;5076001;28;20070;-70
2021/06/25 01:08:56;;;;;;;6.82;6.18;;;16.90;66.80;;;;;;5076334;28;20048;-69
2021/06/25 01:11:23;;;;;;;6.40;5.78;;;16.90;66.80;;;;;;5076091;28;20094;-69
2021/06/25 01:13:49;;;;;;;5.30;4.80;;;16.90;67.20;;;;;;5076465;28;20041;-69
2021/06/25 01:16:17;;;;;;;6.80;6.15;;;16.90;67.30;;;;;;5076852;28;20479;-69
2021/06/25 01:18:42;;;;;;;6.40;5.28;;;16.90;67.40;;;;;;5076152;28;20064;-70
2021/06/25 01:21:09;;;;;;;6.50;5.15;;;16.90;67.50;;;;;;5075924;28;20123;-69
2021/06/25 01:23:40;;;;;;;6.55;5.85;;;16.90;67.60;;;;;;5075954;28;20036;-70
2021/06/25 01:26:06;;;;;;;5.85;5.28;;;16.90;67.80;;;;;;5076542;28;20083;-69
2021/06/25 01:28:33;;;;;;;6.68;6.07;;;16.90;67.80;;;;;;5076436;28;20090;-69
2021/06/25 01:31:00;;;;;;;6.25;5.63;;;16.80;67.60;;;;;;5075563;28;20049;-69
2021/06/25 01:33:27;;;;;;;6.43;5.82;;;16.80;67.70;;;;;;5075691;28;20072;-68
2021/06/25 01:35:54;;;;;;;5.90;5.30;;;16.80;67.50;;;;;;5075624;28;20048;-69
2021/06/25 01:38:20;;;;;;;6.68;6.00;;;16.80;67.40;;;;;;5075275;28;20040;-69
2021/06/25 01:40:46;;;;;;;7.40;6.68;;;16.80;67.60;;;;;;5076375;28;20044;-69
2021/06/25 01:43:13;;;;;;;7.97;5.95;;;16.80;67.80;;;;;;5075681;28;20132;-70
2021/06/25 01:45:42;;;;;;;6.47;5.82;;;16.80;67.80;;;;;;5075798;28;20045;-70
2021/06/25 01:48:10;;;;;;;6.57;5.97;;;16.80;67.90;;;;;;5075773;28;20048;-69
2021/06/25 01:50:42;;;;;;;6.63;5.93;;;16.80;67.90;;;;;;5076105;28;20127;-69
2021/06/25 01:53:13;;;;;;;7.15;5.80;;;16.80;67.90;;;;;;5091340;28;20044;-68
2021/06/25 01:55:41;;;;;;;7.15;5.78;;;16.80;68.00;;;;;;5075646;28;20044;-69
2021/06/25 01:58:13;;;;;;;6.65;6.05;;;16.80;68.10;;;;;;5075597;28;20045;-70
2021/06/25 02:00:41;;;;;;;6.30;5.32;;;16.80;68.20;;;;;;5074927;28;20052;-69
2021/06/25 02:03:07;;;;;;;6.60;5.70;;;16.80;68.20;;;;;;5075082;28;20051;-69
2021/06/25 02:05:33;;;;;;;8.40;6.55;;;16.80;68.30;;;;;;5075359;28;20048;-69
2021/06/25 02:07:59;;;;;;;6.25;5.30;;;16.70;68.10;;;;;;5075291;28;20456;-69
2021/06/25 02:10:25;;;;;;;6.55;5.93;;;16.70;68.20;;;;;;5075407;28;20055;-70
2021/06/25 02:12:51;;;;;;;5.90;5.28;;;16.70;68.10;;;;;;5075337;28;20097;-69
2021/06/25 02:15:17;;;;;;;6.80;5.07;;;16.70;68.00;;;;;;5075521;28;20051;-69
2021/06/25 02:17:43;;;;;;;6.00;5.40;;;16.70;68.10;;;;;;5075283;28;20075;-68
2021/06/25 02:20:10;;;;;;;6.55;5.10;;;16.70;68.10;;;;;;5075272;28;20091;-69
2021/06/25 02:22:37;;;;;;;5.38;4.82;;;16.70;68.00;;;;;;5075224;28;20041;-70
2021/06/25 02:25:05;;;;;;;7.63;5.85;;;16.70;68.00;;;;;;5075280;28;20068;-69
2021/06/25 02:27:31;;;;;;;6.57;5.07;;;16.70;68.00;;;;;;5090803;28;20045;-69
2021/06/25 02:29:57;;;;;;;6.03;5.28;;;16.70;67.90;;;;;;5073747;28;20362;-69
2021/06/25 02:32:23;;;;;;;5.10;4.60;;;16.70;67.70;;;;;;5075001;28;20062;-69
2021/06/25 02:34:49;;;;;;;4.72;4.32;;;16.70;67.80;;;;;;5074706;28;20058;-70
2021/06/25 02:37:16;;;;;;;5.20;4.55;;;16.60;67.90;;;;;;5075292;28;20048;-70
2021/06/25 02:39:41;;;;;;;5.30;4.80;;;16.60;67.90;;;;;;5074329;28;20110;-69
2021/06/25 02:42:07;;;;;;;5.57;4.80;;;16.60;67.90;;;;;;5075132;28;20123;-68
2021/06/25 02:44:33;;;;;;;5.60;4.88;;;16.60;68.10;;;;;;5075437;28;20052;-69
2021/06/25 02:46:59;;;;;;;4.97;4.47;;;16.70;68.20;;;;;;5075066;28;20447;-68
2021/06/25 02:49:26;;;;;;;5.35;4.78;;;16.60;68.10;;;;;;5074742;28;20048;-69
2021/06/25 02:51:52;;;;;;;4.95;4.45;;;16.60;68.00;;;;;;5075114;28;20056;-70
2021/06/25 02:54:19;;;;;;;5.10;4.60;;;16.60;68.20;;;;;;5075434;28;20044;-69
2021/06/25 02:56:45;;;;;;;4.93;4.10;;;16.60;68.10;;;;;;5074737;28;20114;-69
2021/06/25 02:59:11;;;;;;;5.88;4.15;;;16.60;68.10;;;;;;5074745;28;20036;-69
2021/06/25 03:01:36;;;;;;;5.07;4.57;;;16.60;68.30;;;;;;5074460;28;20087;-69
2021/06/25 03:04:03;;;;;;;5.07;4.50;;;16.60;68.20;;;;;;5074794;28;20118;-70
2021/06/25 03:06:36;;;;;;;4.85;4.40;;;16.60;68.20;;;;;;5074661;28;20356;-69
2021/06/25 03:09:02;;;;;;;6.55;4.80;;;16.60;68.30;;;;;;5074532;28;20059;-69
2021/06/25 03:11:28;;;;;;;4.65;4.00;;;16.60;68.30;;;;;;5090441;28;20106;-69
2021/06/25 03:13:54;;;;;;;5.78;4.30;;;16.60;68.40;;;;;;5077835;28;20459;-69
2021/06/25 03:16:20;;;;;;;5.22;4.60;;;16.60;68.40;;;;;;5078517;28;20048;-70
2021/06/25 03:18:46;;;;;;;5.30;4.80;;;16.60;68.50;;;;;;5078387;28;20368;-70
2021/06/25 03:21:13;;;;;;;6.28;4.95;;;16.60;68.50;;;;;;5079108;28;20052;-69
2021/06/25 03:23:39;;;;;;;5.05;4.55;;;16.60;68.50;;;;;;5077828;28;20045;-70
2021/06/25 03:26:05;;;;;;;5.13;4.55;;;16.60;68.60;;;;;;5077954;28;20044;-69
2021/06/25 03:28:31;;;;;;;9.88;4.90;;;16.60;68.70;;;;;;5078008;28;20044;-70
2021/06/25 03:30:57;;;;;;;5.10;4.60;;;16.60;68.80;;;;;;5078205;28;20044;-69
2021/06/25 03:33:23;;;;;;;6.75;4.65;;;16.60;68.80;;;;;;5078297;28;20052;-68
2021/06/25 03:35:50;;;;;;;5.82;4.40;;;16.60;69.00;;;;;;5077987;28;20044;-69
2021/06/25 03:38:16;;;;;;;5.43;4.32;;;16.60;68.80;;;;;;5077803;28;20045;-69
2021/06/25 03:40:43;;;;;;;5.45;4.10;;;16.60;68.90;;;;;;5078226;28;20048;-69
2021/06/25 03:43:08;;;;;;;4.15;3.75;;;16.60;69.10;;;;;;5077987;28;20105;-69
2021/06/25 03:45:34;;;;;;;4.03;3.63;;;16.60;69.30;;;;;;5078026;28;20429;-70
2021/06/25 03:48:00;;;;;;;4.30;3.90;;;16.70;69.40;;;;;;5077868;28;20422;-68
2021/06/25 03:50:27;;;;;;;4.85;4.13;;;16.70;69.40;;;;;;5077797;28;20055;-69
2021/06/25 03:52:53;;;;;;;4.03;3.63;;;16.70;69.40;;;;;;5077874;28;20036;-70
2021/06/25 03:55:20;;;;;;;3.67;3.25;;;16.80;69.30;;;;;;5077367;28;20116;-69
2021/06/25 03:57:46;;;;;;;5.03;3.70;;;16.80;69.30;;;;;;5076734;28;20112;-69
2021/06/25 04:00:15;;;;;;;4.22;3.83;;;16.80;69.30;;;;;;5093511;28;20052;-69
2021/06/25 04:02:41;;;;;;;5.07;3.70;;;16.80;69.30;;;;;;5077394;28;20074;-68
2021/06/25 04:05:10;;;;;;;4.38;3.70;;;16.90;69.40;;;;;;5077689;28;20048;-70
2021/06/25 04:07:37;;;;;;;5.13;3.90;;;16.90;69.40;;;;;;5077110;28;20075;-69
2021/06/25 04:10:05;;;;;;;4.40;4.00;;;16.90;69.30;;;;;;5077174;28;20413;-69
2021/06/25 04:12:31;;;;;;;4.35;3.95;;;16.90;69.40;;;;;;5078103;28;20225;-69
2021/06/25 04:14:58;;;;;;;4.97;4.50;;;16.90;70.00;;;;;;5077540;28;20472;-70
2021/06/25 04:17:24;;;;;;;4.45;4.05;;;16.90;69.50;;;;;;5077344;28;20455;-69
2021/06/25 04:19:49;;;;;;;5.32;4.82;;;16.90;69.50;;;;;;5077176;28;20132;-70
2021/06/25 04:22:15;;;;;;;5.35;4.53;;;16.90;69.50;;;;;;5077018;28;20076;-69
2021/06/25 04:24:41;;;;;;;5.25;4.30;;;16.90;69.50;;;;;;5076153;28;20121;-70
2021/06/25 04:27:07;;;;;;;5.05;4.55;;;16.90;69.50;;;;;;5077317;28;20507;-69
2021/06/25 04:29:35;;;;;;;4.95;4.22;;;16.90;69.60;;;;;;5076954;28;20063;-70
2021/06/25 04:32:01;;;;;;;4.57;4.03;;;16.90;69.60;;;;;;5077088;28;20048;-70
2021/06/25 04:34:27;;;;;;;4.82;4.35;;;17.00;69.70;;;;;;5076702;28;20044;-69
2021/06/25 04:36:53;;;;;;;5.45;4.43;;;17.00;69.70;;;;;;5076825;28;20359;-70
2021/06/25 04:39:19;;;;;;;4.20;3.80;;;17.00;69.80;;;;;;5076817;28;20048;-70
2021/06/25 04:41:45;;;;;;;5.05;4.30;;;16.90;69.80;;;;;;5076464;28;20459;-70
2021/06/25 04:44:12;;;;;;;5.10;4.65;;;17.00;69.90;;;;;;5092268;28;20389;-70
2021/06/25 04:46:38;;;;;;;5.90;4.68;;;17.00;70.00;;;;;;5077073;28;20048;-68
2021/06/25 04:49:04;;;;;;;4.28;3.88;;;17.00;70.00;;;;;;5076951;28;20040;-71
2021/06/25 04:51:30;;;;;;;4.90;4.43;;;17.00;70.10;;;;;;5076506;28;20144;-69
2021/06/25 04:53:56;;;;;;;5.15;4.43;;;17.00;70.10;;;;;;5092388;28;20457;-68
2021/06/25 04:56:22;;;;;;;13.73;6.13;;;16.90;70.30;;;;;;5076741;28;20044;-69
2021/06/25 04:58:48;;;;;;;5.63;4.28;;;16.90;70.70;;;;;;5076091;28;20113;-69
2021/06/25 05:01:14;;;;;;;5.80;4.57;;;16.90;70.80;;;;;;5076023;28;20062;-72
2021/06/25 05:03:41;;;;;;;6.75;5.28;;;17.00;70.50;;;;;;5076736;28;20128;-76
2021/06/25 05:06:07;;;;;;;7.65;5.57;;;17.00;70.10;;;;;;5076868;28;20060;-69
2021/06/25 05:08:33;;;;;;;10.25;5.88;;;17.10;69.80;;;;;;5076145;28;20087;-69
2021/06/25 05:10:59;;;;;;;9.85;6.53;;;17.20;69.70;;;;;;5076557;28;20048;-71
2021/06/25 05:13:25;;;;;;;10.05;7.60;;;17.20;69.80;;;;;;5076054;28;20473;-68
2021/06/25 05:15:51;;;;;;;12.90;7.75;;;17.30;69.90;;;;;;5076226;28;20070;-70
2021/06/25 05:18:23;;;;;;;9.48;7.20;;;17.30;69.80;;;;;;5075623;28;20049;-70
2021/06/25 05:20:50;;;;;;;9.18;7.65;;;17.30;70.30;;;;;;5075806;28;20102;-69
2021/06/25 05:23:18;;;;;;;9.32;8.05;;;17.40;70.20;;;;;;5075989;28;20573;-69
2021/06/25 05:25:45;;;;;;;12.90;10.23;;;17.40;70.30;;;;;;5092413;28;20451;-68
2021/06/25 05:28:11;;;;;;;15.40;10.80;;;17.50;70.00;;;;;;5076064;28;20063;-68
2021/06/25 05:30:38;;;;;;;11.63;8.82;;;17.50;70.00;;;;;;5075585;28;20467;-70
2021/06/25 05:33:05;;;;;;;12.30;8.90;;;17.40;70.60;;;;;;5075742;28;20127;-70
2021/06/25 05:35:31;;;;;;;11.07;7.55;;;17.30;71.40;;;;;;5075356;28;20045;-70
2021/06/25 05:38:02;;;;;;;9.82;7.45;;;17.30;71.50;;;;;;5075569;28;20029;-70
2021/06/25 05:40:28;;;;;;;14.55;7.75;;;17.30;71.70;;;;;;5076093;28;20402;-70
2021/06/25 05:42:54;;;;;;;10.10;7.70;;;17.30;72.00;;;;;;5075554;28;20443;-70
2021/06/25 05:45:20;;;;;;;9.60;7.47;;;17.30;72.10;;;;;;5075422;28;20044;-70
2021/06/25 05:47:46;;;;;;;8.38;7.03;;;17.30;72.20;;;;;;5075835;28;20109;-70
2021/06/25 05:50:13;;;;;;;10.32;7.00;;;17.30;72.40;;;;;;5075221;28;20406;-70
2021/06/25 05:52:39;;;;;;;9.95;7.35;;;17.20;72.40;;;;;;5075442;28;20404;-69
2021/06/25 05:55:05;;;;;;;8.38;7.45;;;17.30;72.50;;;;;;5075760;28;20124;-67
2021/06/25 05:57:32;;;;;;;13.75;11.07;;;17.30;72.90;;;;;;5075048;28;20060;-70
2021/06/25 05:59:58;;;;;;;11.27;9.30;;;17.40;72.60;;;;;;5076079;28;20071;-69
2021/06/25 06:02:24;;;;;;;10.68;9.52;;;17.50;72.20;;;;;;5075276;28;20452;-68
2021/06/25 06:04:49;;;;;;;19.48;9.68;;;17.40;72.30;;;;;;5075175;28;20367;-70
2021/06/25 06:07:17;;;;;;;13.77;8.77;;;17.40;72.40;;;;;;5075309;28;20055;-71
2021/06/25 06:09:42;;;;;;;17.20;8.82;;;17.40;72.50;;;;;;5074292;28;20071;-70
2021/06/25 06:12:09;;;;;;;8.65;7.80;;;17.40;72.80;;;;;;5075221;28;20456;-70
2021/06/25 06:14:34;;;;;;;13.63;8.45;;;17.40;72.60;;;;;;5075054;28;20051;-72
2021/06/25 06:17:00;;;;;;;21.58;11.30;;;17.40;72.60;;;;;;5074877;28;20044;-74
2021/06/25 06:19:37;;;;;;;15.82;11.00;;;17.50;73.50;;;;;;5074863;28;20462;-71
2021/06/25 06:35:39;;;;;;;13.18;8.10;;;17.50;72.40;;;;;;5095331;28;20043;-74
2021/06/25 06:38:05;;;;;;;13.15;8.50;;;17.60;72.50;;;;;;5094738;28;20043;-71
2021/06/25 06:40:32;;;;;;;15.07;8.20;;;17.50;72.30;;;;;;5094611;28;20127;-72
2021/06/25 06:42:59;;;;;;;13.88;7.43;;;17.60;72.70;;;;;;5095728;28;20041;-68
2021/06/25 06:45:25;;;;;;;11.98;9.13;;;17.60;72.80;;;;;;5095083;28;20044;-69
2021/06/25 06:47:50;;;;;;;16.10;8.50;;;17.60;72.60;;;;;;5096472;28;20440;-70
2021/06/25 06:50:17;;;;;;;14.38;7.38;;;17.60;72.90;;;;;;5099328;28;20036;-71
2021/06/25 06:52:44;;;;;;;12.45;7.93;;;17.60;72.90;;;;;;5087318;28;20126;-72
2021/06/25 06:55:16;;;;;;;14.10;9.15;;;17.50;73.00;;;;;;5078959;28;20048;-71
2021/06/25 06:57:43;;;;;;;10.82;8.10;;;17.60;72.90;;;;;;5078065;28;20056;-69
2021/06/25 07:00:09;;;;;;;11.38;9.63;;;17.50;73.10;;;;;;5078777;28;20040;-71
2021/06/25 07:02:40;;;;;;;12.55;8.15;;;17.50;72.90;;;;;;5077347;28;20067;-71
2021/06/25 07:05:07;;;;;;;20.40;13.75;;;17.50;73.30;;;;;;5078110;28;20062;-70
2021/06/25 07:07:33;;;;;;;12.90;11.57;;;17.60;72.70;;;;;;5078231;28;20072;-71
2021/06/25 07:10:00;;;;;;;13.85;10.20;;;17.60;72.80;;;;;;5078170;28;20060;-72
2021/06/25 07:12:26;;;;;;;14.50;10.68;;;17.70;73.00;;;;;;5078578;28;20416;-71
2021/06/25 07:14:52;;;;;;;12.45;10.25;;;17.60;73.00;;;;;;5078243;28;20079;-71
2021/06/25 07:17:17;;;;;;;13.90;10.07;;;17.70;72.80;;;;;;5078252;28;20068;-72
2021/06/25 07:19:43;;;;;;;13.75;11.82;;;17.70;72.70;;;;;;5078034;28;20063;-71
2021/06/25 07:22:09;;;;;;;14.95;11.32;;;17.70;72.80;;;;;;5078096;28;20048;-72
2021/06/25 07:24:35;;;;;;;15.38;11.30;;;17.80;72.80;;;;;;5078022;28;20127;-73
2021/06/25 07:27:01;;;;;;;14.93;13.32;;;17.80;72.60;;;;;;5078159;28;20048;-72
2021/06/25 07:29:27;;;;;;;15.02;11.95;;;17.80;72.40;;;;;;5078133;28;20048;-71
2021/06/25 07:31:53;;;;;;;16.17;13.50;;;17.80;72.20;;;;;;5077388;28;20050;-73
2021/06/25 07:34:19;;;;;;;15.88;13.48;;;17.80;72.00;;;;;;5078130;28;20045;-72
2021/06/25 07:36:45;;;;;;;20.90;13.43;;;17.90;71.80;;;;;;5077973;28;20051;-74
2021/06/25 07:39:11;;;;;;;16.08;13.75;;;17.90;71.70;;;;;;5077969;28;20405;-72
2021/06/25 07:41:37;;;;;;;15.65;13.98;;;17.90;71.60;;;;;;5077888;28;20158;-72
2021/06/25 07:44:03;;;;;;;14.70;13.15;;;17.90;71.60;;;;;;5077358;28;20107;-73
2021/06/25 07:46:30;;;;;;;14.73;13.25;;;17.90;71.50;;;;;;5093523;28;20550;-73
2021/06/25 07:48:55;;;;;;;15.52;13.82;;;17.90;71.40;;;;;;5077565;28;20044;-73
2021/06/25 07:51:22;;;;;;;15.52;13.93;;;17.90;71.40;;;;;;5077657;28;20344;-73
2021/06/25 07:53:47;;;;;;;15.10;13.55;;;17.90;71.40;;;;;;5093506;28;20119;-71
2021/06/25 07:56:14;;;;;;;14.05;12.57;;;17.90;71.20;;;;;;5077426;28;20123;-71
2021/06/25 07:58:40;;;;;;;17.77;15.13;;;17.90;71.30;;;;;;5077484;28;20111;-72
2021/06/25 08:01:07;;;;;;;18.98;13.82;;;17.90;71.20;;;;;;5076929;28;20052;-72
2021/06/25 08:03:32;;;;;;;16.60;13.73;;;17.90;71.10;;;;;;5077180;28;20101;-72
2021/06/25 08:05:58;;;;;;;14.98;13.38;;;17.90;71.10;;;;;;5077528;28;20044;-71
2021/06/25 08:08:24;;;;;;;15.52;13.73;;;17.90;71.10;;;;;;5077454;28;20055;-72
2021/06/25 08:10:50;;;;;;;17.63;14.60;;;17.90;71.10;;;;;;5086733;28;20048;-72
2021/06/25 08:13:16;;;;;;;18.95;15.55;;;18.00;71.00;;;;;;5077205;28;20363;-72
2021/06/25 08:15:48;;;;;;;18.90;15.35;;;18.00;70.40;;;;;;5092321;28;20052;-71
2021/06/25 08:18:15;;;;;;;18.60;16.33;;;18.00;70.20;;;;;;5097350;28;20059;-74
2021/06/25 08:20:40;;;;;;;18.10;15.68;;;18.00;70.10;;;;;;5097104;28;20040;-73
2021/06/25 08:23:06;;;;;;;17.52;15.68;;;17.90;70.20;;;;;;5097001;28;20047;-73
2021/06/25 08:25:32;;;;;;;18.02;15.13;;;17.90;70.40;;;;;;5097477;28;20051;-73
2021/06/25 08:27:58;;;;;;;17.42;15.10;;;17.90;70.50;;;;;;5095749;28;20051;-72
2021/06/25 08:30:25;;;;;;;18.10;14.40;;;17.90;70.60;;;;;;5096851;28;20036;-73
2021/06/25 08:32:52;;;;;;;15.80;13.30;;;17.90;70.70;;;;;;5088546;28;20051;-75
2021/06/25 08:35:18;;;;;;;19.70;14.18;;;17.90;70.80;;;;;;5076645;28;20109;-73
2021/06/25 08:37:44;;;;;;;15.07;13.32;;;17.90;70.80;;;;;;5077002;28;20459;-75
2021/06/25 08:40:10;;;;;;;20.00;13.98;;;17.90;70.70;;;;;;5076917;28;20037;-74
2021/06/25 08:42:37;;;;;;;20.77;12.90;;;17.90;70.60;;;;;;5076787;28;20055;-77
2021/06/25 08:45:05;;;;;;;16.35;12.75;;;18.00;70.70;;;;;;5076427;28;20071;-74
2021/06/25 08:47:34;;;;;;;18.67;14.27;;;18.00;70.70;;;;;;5076368;28;20072;-72
2021/06/25 08:50:01;;;;;;;18.55;14.18;;;18.00;70.50;;;;;;5076981;28;20052;-75
2021/06/25 08:52:27;;;;;;;41.22;24.38;;;18.00;70.20;;;;;;5076680;28;20503;-72
2021/06/25 08:54:53;;;;;;;45.13;25.98;;;18.00;70.30;;;;;;5076500;28;20064;-73
2021/06/25 08:57:19;;;;;;;44.03;24.50;;;18.00;70.50;;;;;;5076289;28;20055;-74
2021/06/25 08:59:46;;;;;;;42.45;23.25;;;18.00;70.90;;;;;;5075969;28;20075;-72
2021/06/25 09:02:13;;;;;;;34.05;21.45;;;18.10;70.80;;;;;;5076278;28;20075;-74
2021/06/25 09:04:41;;;;;;;33.28;18.63;;;18.10;70.50;;;;;;5076205;28;20052;-71
2021/06/25 09:07:08;;;;;;;31.50;18.48;;;18.20;70.40;;;;;;5076283;28;20044;-72
2021/06/25 09:09:45;;;;;;;27.00;18.60;;;18.20;70.20;;;;;;5076200;28;20406;-74
2021/06/25 09:12:21;;;;;;;29.17;17.67;;;18.20;70.20;;;;;;5082800;28;20047;-75
2021/06/25 09:15:17;;;;;;;28.40;16.98;;;18.20;70.10;;;;;;5095671;28;20122;-74
2021/06/25 09:18:01;;;;;;;24.35;14.73;;;18.30;70.10;;;;;;5081030;28;20040;-74
2021/06/25 09:20:50;;;;;;;18.50;14.60;;;18.20;69.60;;;;;;5076147;28;20054;-74
2021/06/25 09:23:33;;;;;;;17.45;13.38;;;18.20;68.40;;;;;;5090880;28;20438;-74
2021/06/25 09:26:10;;;;;;;15.90;13.10;;;18.20;68.30;;;;;;5095844;28;20036;-77
2021/06/25 09:28:39;;;;;;;17.50;13.70;;;18.20;67.60;;;;;;5096473;28;20036;-73
2021/06/25 09:31:22;;;;;;;17.15;13.18;;;18.20;67.20;;;;;;5091258;28;20192;-78
2021/06/25 09:33:51;;;;;;;19.08;14.10;;;18.20;67.40;;;;;;5095904;28;20044;-75
2021/06/25 09:36:25;;;;;;;18.05;14.18;;;18.20;67.70;;;;;;5096009;28;20533;-73
2021/06/25 09:38:58;;;;;;;18.50;14.80;;;18.20;67.70;;;;;;5092990;28;20044;-76
2021/06/25 09:41:25;;;;;;;17.38;12.95;;;18.20;68.00;;;;;;5082239;28;20131;-76
2021/06/25 09:43:54;;;;;;;19.55;13.82;;;18.30;68.10;;;;;;5075378;28;20044;-73
2021/06/25 09:46:29;;;;;;;17.50;12.15;;;18.30;68.30;;;;;;5075567;28;20562;-72
2021/06/25 09:48:58;;;;;;;18.73;12.35;;;18.20;68.40;;;;;;5075638;28;20068;-73
2021/06/25 09:51:24;;;;;;;16.30;12.43;;;18.20;68.50;;;;;;5075372;28;20040;-73
2021/06/25 09:54:13;;;;;;;16.15;12.00;;;18.20;68.50;;;;;;5075126;28;20044;-72
2021/06/25 09:56:46;;;;;;;12.65;11.10;;;18.20;68.70;;;;;;5075298;28;20468;-73
2021/06/25 10:00:09;;;;;;;13.88;10.65;;;18.20;68.80;;;;;;5075164;28;20379;-74
2021/06/25 10:02:19;;;;;;;12.55;10.20;;;18.20;68.90;;;;;;5071996;28;20076;-72
2021/06/25 10:04:50;;;;;;;13.30;10.45;;;18.20;69.00;;;;;;5075314;28;20040;-73
2021/06/25 10:07:27;;;;;;;13.82;9.40;;;18.20;69.10;;;;;;5075553;28;20360;-72
2021/06/25 10:10:07;;;;;;;12.07;9.52;;;18.20;69.10;;;;;;5075327;28;20049;-73
2021/06/25 10:12:37;;;;;;;12.15;9.15;;;18.20;69.20;;;;;;5075076;28;20041;-73
2021/06/25 10:15:04;;;;;;;9.73;8.65;;;18.20;69.20;;;;;;5075154;28;20051;-73
2021/06/25 10:17:31;;;;;;;11.93;8.93;;;18.30;69.30;;;;;;5075822;28;20090;-73
2021/06/25 10:20:12;;;;;;;10.32;8.18;;;18.30;70.00;;;;;;5075316;28;20045;-74
2021/06/25 10:22:42;;;;;;;11.55;8.05;;;18.20;69.30;;;;;;5074900;28;20050;-74
2021/06/25 10:25:09;;;;;;;10.15;7.88;;;18.30;69.50;;;;;;5074970;28;20041;-73
2021/06/25 10:27:35;;;;;;;11.75;7.90;;;18.30;69.50;;;;;;5075275;28;20048;-74
2021/06/25 10:30:03;;;;;;;13.23;8.05;;;18.30;69.50;;;;;;5075447;28;20110;-74
2021/06/25 10:32:29;;;;;;;11.73;7.90;;;18.30;69.50;;;;;;5075503;28;20518;-73
2021/06/25 10:34:56;;;;;;;8.73;6.85;;;18.30;69.50;;;;;;5075059;28;20135;-73
2021/06/25 10:37:24;;;;;;;9.55;7.28;;;18.30;69.60;;;;;;5075203;28;20117;-73
2021/06/25 10:39:51;;;;;;;9.27;7.40;;;18.30;69.60;;;;;;5075468;28;20431;-72
2021/06/25 10:42:17;;;;;;;7.47;6.70;;;18.30;69.60;;;;;;5074951;28;20055;-73
2021/06/25 10:44:54;;;;;;;9.23;7.80;;;18.30;69.70;;;;;;5074698;28;20158;-71
2021/06/25 10:47:32;;;;;;;9.38;8.10;;;18.30;69.70;;;;;;5075054;28;20051;-71
2021/06/25 10:50:01;;;;;;;10.05;7.60;;;18.30;69.80;;;;;;5074944;28;20522;-74
2021/06/25 10:52:28;;;;;;;9.75;7.22;;;18.30;69.80;;;;;;5074897;28;20471;-73
2021/06/25 10:55:05;;;;;;;9.93;7.32;;;18.30;69.90;;;;;;5074880;28;20040;-74
2021/06/25 10:57:34;;;;;;;8.88;7.22;;;18.40;70.00;;;;;;5075076;28;20044;-73
2021/06/25 11:00:00;;;;;;;10.75;7.47;;;18.30;70.00;;;;;;5074556;28;20065;-72
2021/06/25 11:02:44;;;;;;;9.02;7.13;;;18.30;70.00;;;;;;5074840;28;20127;-73
2021/06/25 11:05:25;;;;;;;11.48;6.65;;;18.30;70.10;;;;;;5074642;28;20059;-72
2021/06/25 11:07:53;;;;;;;8.00;7.20;;;18.30;70.10;;;;;;5074782;28;20051;-73
2021/06/25 11:10:34;;;;;;;8.57;6.60;;;18.30;70.20;;;;;;5075494;28;20141;-73
2021/06/25 11:13:12;;;;;;;11.13;6.75;;;18.30;70.20;;;;;;5074462;28;20101;-72
2021/06/25 11:15:39;;;;;;;7.38;6.65;;;18.30;70.30;;;;;;5074649;28;20049;-74
2021/06/25 11:18:15;;;;;;;8.52;7.13;;;18.30;70.30;;;;;;5074941;28;20049;-72
2021/06/25 11:21:08;;;;;;;9.27;6.63;;;18.30;70.30;;;;;;5074734;28;20045;-73
2021/06/25 11:23:44;;;;;;;8.38;6.85;;;18.30;70.40;;;;;;5073774;28;20060;-74
2021/06/25 11:26:16;;;;;;;7.97;7.00;;;18.30;70.50;;;;;;5074630;28;20431;-73
2021/06/25 11:28:44;;;;;;;9.27;7.57;;;18.30;70.50;;;;;;5074508;28;20048;-72
2021/06/25 11:31:13;;;;;;;9.23;8.20;;;18.30;70.60;;;;;;5074828;28;20056;-72
2021/06/25 11:33:51;;;;;;;8.80;7.45;;;18.30;70.60;;;;;;5091213;28;20045;-75
2021/06/25 11:36:32;;;;;;;8.70;7.45;;;18.30;70.70;;;;;;5078257;28;20044;-73
2021/06/25 11:39:11;;;;;;;7.75;6.95;;;18.30;70.70;;;;;;5078032;28;20053;-72
2021/06/25 11:41:45;;;;;;;8.18;7.10;;;18.30;70.70;;;;;;5078364;28;20041;-73
2021/06/25 11:44:12;;;;;;;9.48;6.80;;;18.30;70.70;;;;;;5078033;28;20041;-73
2021/06/25 11:46:49;;;;;;;8.80;7.50;;;18.30;70.80;;;;;;5078369;28;20056;-71
2021/06/25 11:49:15;;;;;;;9.27;7.10;;;18.30;70.80;;;;;;5078071;28;20079;-72
2021/06/25 11:51:43;;;;;;;8.55;7.25;;;18.30;70.80;;;;;;5077749;28;20064;-72
2021/06/25 11:54:11;;;;;;;8.77;7.13;;;18.30;70.80;;;;;;5078082;28;20041;-73
2021/06/25 11:56:42;;;;;;;9.13;7.30;;;18.30;70.80;;;;;;5077915;28;20115;-73
2021/06/25 11:59:09;;;;;;;10.85;7.28;;;18.30;70.80;;;;;;5078085;28;20108;-73
2021/06/25 12:01:53;;;;;;;7.82;6.65;;;18.30;70.80;;;;;;5077308;28;20067;-72
2021/06/25 12:04:53;;;;;;;8.43;7.47;;;18.30;70.80;;;;;;5077878;28;20123;-72
2021/06/25 12:07:20;;;;;;;8.32;7.00;;;18.40;70.80;;;;;;5065623;28;20060;-72
2021/06/25 12:09:51;;;;;;;9.50;7.95;;;18.30;70.80;;;;;;5078006;28;20076;-73
2021/06/25 12:12:26;;;;;;;8.35;7.45;;;18.40;70.90;;;;;;5077515;28;20051;-74
2021/06/25 12:15:03;;;;;;;9.40;8.00;;;18.30;70.80;;;;;;5077705;28;20072;-73
2021/06/25 12:17:47;;;;;;;11.10;9.02;;;18.30;70.90;;;;;;5077631;28;20348;-73
2021/06/25 12:20:19;;;;;;;10.10;8.70;;;18.40;71.00;;;;;;5077271;28;20048;-72
2021/06/25 12:23:04;;;;;;;9.98;8.80;;;18.40;71.00;;;;;;5076952;28;20352;-73
2021/06/25 12:25:51;;;;;;;10.63;9.05;;;18.40;71.00;;;;;;5077306;28;20040;-72
2021/06/25 12:28:22;;;;;;;11.05;9.13;;;18.40;71.10;;;;;;5077405;28;20041;-73
2021/06/25 12:30:54;;;;;;;10.75;8.82;;;18.40;71.10;;;;;;5077209;28;20466;-71
2021/06/25 12:33:23;;;;;;;9.63;8.60;;;18.40;71.10;;;;;;5077252;28;20048;-73
2021/06/25 12:35:52;;;;;;;10.15;9.10;;;18.40;71.10;;;;;;5077195;28;20337;-75
2021/06/25 12:38:20;;;;;;;10.98;9.23;;;18.40;71.20;;;;;;5077093;28;20040;-73
2021/06/25 12:40:49;;;;;;;11.10;9.20;;;18.40;71.20;;;;;;5076828;28;20119;-74
2021/06/25 12:43:30;;;;;;;11.90;9.35;;;18.40;71.20;;;;;;5077712;28;20044;-73
2021/06/25 12:46:13;;;;;;;11.13;9.68;;;18.40;71.20;;;;;;5076072;28;20055;-74
2021/06/25 12:48:45;;;;;;;9.10;8.15;;;18.40;71.30;;;;;;5077536;28;20124;-72
2021/06/25 12:51:14;;;;;;;11.23;9.88;;;18.40;71.30;;;;;;5076258;28;20412;-73
2021/06/25 12:53:43;;;;;;;9.85;8.90;;;18.40;71.90;;;;;;5076627;28;20244;-73
2021/06/25 12:56:16;;;;;;;11.88;10.00;;;18.40;71.40;;;;;;5076568;28;20121;-73
2021/06/25 12:58:45;;;;;;;10.95;9.82;;;18.40;71.40;;;;;;5076609;28;20040;-71
2021/06/25 13:01:11;;;;;;;11.60;10.40;;;18.50;71.50;;;;;;5075016;28;20111;-73